Time;durP1;ratioP1;P1;durP2;ratioP2;P2;SDS_P1;SDS_P2;PMS_P1;PMS_P2;Temp;Humidity;BMP_temperature;BMP_pressure;BME280_temperature;BME280_humidity;BME280_pressure;Samples;Min_cycle;Max_cycle;Signal;HPM_P1;HPM_P2
2021/04/13 00:00:31;;;;;;;0.73;0.50;;;5.10;99.90;;;;;;5094818;28;20418;-51
2021/04/13 00:03:02;;;;;;;0.90;0.60;;;5.10;99.90;;;;;;5093940;28;20504;-48
2021/04/13 00:05:32;;;;;;;1.10;0.50;;;5.10;99.90;;;;;;5094386;28;20461;-51
2021/04/13 00:08:03;;;;;;;1.02;0.60;;;5.20;99.90;;;;;;5094738;28;20849;-49
2021/04/13 00:10:33;;;;;;;0.80;0.50;;;5.30;99.90;;;;;;5094739;28;20483;-51
2021/04/13 00:13:01;;;;;;;1.10;0.60;;;5.30;99.90;;;;;;5094692;28;20449;-54
2021/04/13 00:15:30;;;;;;;1.10;0.50;;;5.30;99.90;;;;;;5094110;28;20483;-54
2021/04/13 00:17:58;;;;;;;1.40;0.60;;;5.40;99.90;;;;;;5094621;28;20468;-52
2021/04/13 00:20:33;;;;;;;0.90;0.52;;;5.50;99.90;;;;;;5094598;28;20468;-53
2021/04/13 00:23:01;;;;;;;0.80;0.50;;;5.50;99.90;;;;;;5095049;28;20422;-52
2021/04/13 00:25:31;;;;;;;1.00;0.60;;;5.10;99.90;;;;;;5098523;28;20482;-55
2021/04/13 00:27:58;;;;;;;2.00;0.50;;;4.90;99.90;;;;;;5098088;28;20422;-55
2021/04/13 00:30:28;;;;;;;0.80;0.50;;;4.80;99.90;;;;;;5098363;28;20429;-55
2021/04/13 00:33:00;;;;;;;0.90;0.50;;;4.60;99.90;;;;;;5098392;28;20452;-54
2021/04/13 00:35:30;;;;;;;1.60;0.60;;;4.60;99.90;;;;;;5098240;28;20433;-54
2021/04/13 00:38:32;;;;;;;1.33;0.60;;;4.50;99.90;;;;;;5098772;28;20425;-52
2021/04/13 00:41:07;;;;;;;1.10;0.60;;;4.60;99.90;;;;;;5097763;28;20729;-49
2021/04/13 00:43:35;;;;;;;1.10;0.60;;;4.70;99.90;;;;;;5097918;28;20452;-52
2021/04/13 00:46:05;;;;;;;0.70;0.50;;;4.90;99.90;;;;;;5097741;28;20826;-54
2021/04/13 00:48:34;;;;;;;1.00;0.52;;;5.00;99.90;;;;;;5097752;28;20516;-52
2021/04/13 00:51:04;;;;;;;1.48;0.50;;;5.00;99.90;;;;;;5098108;28;20465;-51
2021/04/13 00:53:35;;;;;;;0.70;0.50;;;4.90;99.90;;;;;;5097901;28;20514;-54
2021/04/13 00:56:06;;;;;;;0.90;0.50;;;5.00;99.90;;;;;;5097712;28;20532;-54
2021/04/13 00:58:36;;;;;;;0.70;0.50;;;4.90;99.90;;;;;;5097767;28;20423;-54
2021/04/13 01:01:09;;;;;;;1.40;0.60;;;5.00;99.90;;;;;;5096765;28;20445;-54
2021/04/13 01:03:36;;;;;;;1.00;0.67;;;5.20;99.90;;;;;;5096858;28;20545;-54
2021/04/13 01:06:03;;;;;;;0.90;0.60;;;5.20;99.90;;;;;;5096816;28;20551;-54
2021/04/13 01:08:35;;;;;;;0.80;0.50;;;5.00;99.90;;;;;;5097473;28;20436;-54
2021/04/13 01:11:11;;;;;;;0.80;0.50;;;4.80;99.90;;;;;;5096807;28;20426;-53
2021/04/13 01:13:44;;;;;;;0.90;0.60;;;4.60;99.90;;;;;;5096736;28;20441;-53
2021/04/13 01:16:12;;;;;;;1.10;0.60;;;4.60;99.90;;;;;;5097742;28;20495;-51
2021/04/13 01:18:40;;;;;;;0.93;0.60;;;4.70;99.90;;;;;;5097492;28;20417;-50
2021/04/13 01:21:20;;;;;;;0.83;0.60;;;4.80;99.90;;;;;;5097400;28;20426;-53
2021/04/13 01:23:52;;;;;;;0.90;0.60;;;5.00;99.90;;;;;;5097278;28;20418;-54
2021/04/13 01:26:19;;;;;;;0.80;0.50;;;4.90;99.90;;;;;;5097731;28;20437;-51
2021/04/13 01:28:47;;;;;;;1.55;0.60;;;4.90;99.90;;;;;;5096187;28;20836;-55
2021/04/13 01:31:41;;;;;;;0.90;0.60;;;4.70;99.90;;;;;;5097759;28;20433;-54
2021/04/13 01:34:09;;;;;;;1.00;0.70;;;4.50;99.90;;;;;;5097134;28;20413;-55
2021/04/13 01:36:41;;;;;;;2.35;0.70;;;4.40;99.90;;;;;;5096892;28;20430;-53
2021/04/13 01:39:12;;;;;;;1.00;0.70;;;4.30;99.90;;;;;;5097158;28;20418;-55
2021/04/13 01:44:23;;;;;;;1.00;0.70;;;4.20;99.90;;;;;;5093886;28;20398;-55
2021/04/13 01:46:50;;;;;;;0.90;0.70;;;4.20;99.90;;;;;;5097302;28;20512;-51
2021/04/13 01:49:17;;;;;;;0.90;0.70;;;4.20;99.90;;;;;;5096868;28;20487;-55
2021/04/13 01:51:44;;;;;;;1.00;0.70;;;4.20;99.90;;;;;;5097061;28;20535;-52
2021/04/13 01:54:15;;;;;;;1.00;0.67;;;4.20;99.90;;;;;;5097380;28;20442;-56
2021/04/13 01:56:58;;;;;;;1.10;0.70;;;4.20;99.90;;;;;;5096952;28;20512;-53
2021/04/13 01:59:31;;;;;;;1.30;0.80;;;4.30;99.90;;;;;;5096667;28;20452;-53
2021/04/13 02:02:00;;;;;;;1.70;0.70;;;4.40;99.90;;;;;;5097097;28;20800;-54
2021/04/13 02:04:32;;;;;;;0.80;0.60;;;4.40;99.90;;;;;;5097017;28;20410;-55
2021/04/13 02:07:07;;;;;;;1.20;0.70;;;4.50;99.90;;;;;;5097113;28;20430;-51
2021/04/13 02:09:41;;;;;;;1.27;0.63;;;4.50;99.90;;;;;;5096687;28;20438;-50
2021/04/13 02:12:12;;;;;;;1.30;0.70;;;4.50;99.90;;;;;;5096611;28;20426;-51
2021/04/13 02:14:43;;;;;;;1.23;0.70;;;4.50;99.90;;;;;;5096668;28;20531;-55
2021/04/13 02:17:14;;;;;;;1.20;0.70;;;4.60;99.90;;;;;;5096228;28;20476;-55
2021/04/13 02:19:46;;;;;;;1.40;0.75;;;4.60;99.90;;;;;;5096104;28;20859;-53
2021/04/13 02:22:15;;;;;;;1.10;0.70;;;4.60;99.90;;;;;;5096986;28;20432;-53
2021/04/13 02:24:44;;;;;;;1.10;0.70;;;4.60;99.90;;;;;;5096415;28;20418;-54
2021/04/13 02:27:12;;;;;;;1.50;0.77;;;4.80;99.90;;;;;;5096370;28;20533;-55
2021/04/13 02:29:43;;;;;;;1.20;0.75;;;4.60;99.90;;;;;;5095637;28;20469;-56
2021/04/13 02:32:16;;;;;;;1.40;0.70;;;4.70;99.90;;;;;;5095994;28;20519;-54
2021/04/13 02:34:45;;;;;;;1.00;0.70;;;4.50;99.90;;;;;;5096241;28;20521;-50
2021/04/13 02:37:16;;;;;;;0.90;0.70;;;4.50;99.90;;;;;;5096255;28;20424;-52
2021/04/13 02:39:44;;;;;;;1.00;0.60;;;4.40;99.90;;;;;;5096039;28;20470;-50
2021/04/13 02:42:16;;;;;;;1.20;0.70;;;4.40;99.90;;;;;;5096190;28;20458;-55
2021/04/13 02:44:49;;;;;;;1.50;0.70;;;4.60;99.90;;;;;;5096117;28;20425;-55
2021/04/13 02:47:17;;;;;;;1.15;0.70;;;4.70;99.90;;;;;;5095321;28;20521;-55
2021/04/13 02:49:43;;;;;;;1.30;0.60;;;4.90;99.90;;;;;;5095761;28;20426;-55
2021/04/13 02:52:20;;;;;;;1.17;0.70;;;5.00;99.90;;;;;;5095791;28;20425;-55
2021/04/13 02:54:52;;;;;;;1.50;0.70;;;4.90;99.90;;;;;;5095620;28;20422;-53
2021/04/13 02:57:22;;;;;;;1.50;0.70;;;4.90;99.90;;;;;;5095897;28;20483;-54
2021/04/13 02:59:50;;;;;;;2.40;0.87;;;4.80;99.90;;;;;;5095273;28;20516;-57
2021/04/13 03:02:23;;;;;;;1.00;0.70;;;4.90;99.90;;;;;;5095351;28;20472;-52
2021/04/13 03:04:52;;;;;;;2.00;0.70;;;4.70;99.90;;;;;;5094932;28;21090;-51
2021/04/13 03:07:22;;;;;;;0.95;0.70;;;4.70;99.90;;;;;;5093877;28;20461;-52
2021/04/13 03:09:52;;;;;;;1.05;0.70;;;4.70;99.90;;;;;;5093261;28;20486;-53
2021/04/13 03:12:19;;;;;;;1.80;0.68;;;4.90;99.90;;;;;;5093122;28;20706;-51
2021/04/13 03:14:50;;;;;;;1.20;0.80;;;5.00;99.90;;;;;;5093804;28;20453;-52
2021/04/13 03:17:20;;;;;;;1.08;0.75;;;5.10;99.90;;;;;;5094065;28;20433;-52
2021/04/13 03:19:48;;;;;;;0.90;0.60;;;5.00;99.90;;;;;;5093615;28;20500;-52
2021/04/13 03:22:17;;;;;;;1.30;0.70;;;4.90;99.90;;;;;;5094214;28;20557;-53
2021/04/13 03:24:45;;;;;;;0.90;0.70;;;5.00;99.90;;;;;;5094282;28;20453;-50
2021/04/13 03:27:16;;;;;;;2.40;0.80;;;5.10;99.90;;;;;;5093543;28;20461;-54
2021/04/13 03:29:49;;;;;;;1.00;0.70;;;5.10;99.90;;;;;;5091138;28;20465;-54
2021/04/13 03:32:19;;;;;;;1.05;0.80;;;4.80;99.90;;;;;;5092145;28;20822;-54
2021/04/13 03:34:46;;;;;;;1.70;0.80;;;4.50;99.90;;;;;;5092365;28;20508;-55
2021/04/13 03:37:14;;;;;;;1.02;0.70;;;4.30;99.90;;;;;;5092361;28;20911;-54
2021/04/13 03:39:44;;;;;;;1.30;0.90;;;4.20;99.90;;;;;;5092287;28;20935;-55
2021/04/13 03:42:22;;;;;;;1.10;0.80;;;4.00;99.90;;;;;;5093041;28;20500;-53
2021/04/13 03:44:51;;;;;;;1.50;1.00;;;3.80;99.90;;;;;;5094206;28;20460;-54
2021/04/13 03:47:20;;;;;;;1.40;0.80;;;3.70;99.90;;;;;;5095046;28;20464;-49
2021/04/13 03:49:47;;;;;;;1.60;0.80;;;3.60;99.90;;;;;;5094619;28;20465;-51
2021/04/13 03:52:18;;;;;;;1.30;0.90;;;3.60;99.90;;;;;;5095296;28;20465;-51
2021/04/13 03:54:45;;;;;;;1.60;0.90;;;3.60;99.90;;;;;;5094614;28;20782;-54
2021/04/13 03:57:11;;;;;;;1.30;0.73;;;3.70;99.90;;;;;;5094743;28;20430;-53
2021/04/13 03:59:43;;;;;;;1.50;0.80;;;3.90;99.90;;;;;;5094743;28;20504;-51
2021/04/13 04:02:10;;;;;;;1.13;0.73;;;3.90;99.90;;;;;;5094806;28;20506;-53
2021/04/13 04:04:40;;;;;;;1.85;0.90;;;4.00;99.90;;;;;;5094761;28;20418;-54
2021/04/13 04:07:20;;;;;;;1.30;0.80;;;4.20;99.90;;;;;;5092930;28;20841;-50
2021/04/13 04:09:47;;;;;;;2.95;0.80;;;4.30;99.90;;;;;;5074231;28;20431;-54
2021/04/13 04:12:20;;;;;;;1.42;0.80;;;4.40;99.90;;;;;;5074974;28;20430;-48
2021/04/13 04:14:59;;;;;;;1.60;0.90;;;4.20;99.90;;;;;;5074161;28;20451;-49
2021/04/13 04:17:28;;;;;;;2.08;0.80;;;3.90;99.90;;;;;;5074888;28;20921;-52
2021/04/13 04:19:56;;;;;;;1.40;0.90;;;3.70;99.90;;;;;;5074047;28;20759;-54
2021/04/13 04:22:24;;;;;;;1.65;0.90;;;3.60;99.90;;;;;;5074429;28;20466;-50
2021/04/13 04:24:52;;;;;;;1.70;0.90;;;3.70;99.90;;;;;;5074088;28;20430;-51
2021/04/13 04:27:27;;;;;;;1.77;0.90;;;3.90;99.90;;;;;;5077135;28;20456;-53
2021/04/13 04:30:10;;;;;;;1.30;0.80;;;3.80;99.90;;;;;;5094101;28;20520;-53
2021/04/13 04:32:40;;;;;;;1.17;0.80;;;4.00;99.90;;;;;;5073900;28;20470;-53
2021/04/13 04:35:09;;;;;;;1.60;0.80;;;4.10;99.90;;;;;;5073623;28;20461;-54
2021/04/13 04:37:38;;;;;;;1.58;0.80;;;4.30;99.90;;;;;;5089819;28;20421;-51
2021/04/13 04:40:41;;;;;;;1.88;0.90;;;4.20;99.90;;;;;;5093033;28;20414;-53
2021/04/13 04:43:13;;;;;;;2.00;0.90;;;4.10;99.90;;;;;;5091835;28;20426;-52
2021/04/13 04:45:52;;;;;;;2.10;0.80;;;4.10;99.90;;;;;;5091376;28;20737;-51
2021/04/13 04:48:25;;;;;;;1.98;0.88;;;4.20;99.90;;;;;;5092817;28;20505;-52
2021/04/13 04:50:52;;;;;;;1.60;0.90;;;4.30;99.90;;;;;;5093179;28;20454;-52
2021/04/13 04:53:20;;;;;;;1.40;0.82;;;4.20;99.90;;;;;;5093835;28;20422;-52
2021/04/13 04:55:48;;;;;;;1.40;0.90;;;4.10;99.90;;;;;;5094140;28;20466;-48
2021/04/13 04:58:15;;;;;;;1.30;0.88;;;4.00;99.90;;;;;;5094011;28;20775;-51
2021/04/13 05:00:41;;;;;;;1.30;0.90;;;4.10;99.90;;;;;;5093056;28;20732;-51
2021/04/13 05:03:09;;;;;;;1.90;0.85;;;4.20;99.90;;;;;;5092218;28;20524;-52
2021/04/13 05:05:35;;;;;;;1.10;0.70;;;4.60;99.90;;;;;;5092443;28;20967;-49
2021/04/13 05:08:01;;;;;;;2.05;0.80;;;4.70;99.90;;;;;;5093091;28;20512;-51
2021/04/13 05:10:28;;;;;;;1.67;0.80;;;5.10;99.90;;;;;;5093777;28;20513;-54
2021/04/13 05:12:55;;;;;;;1.38;0.75;;;5.20;99.90;;;;;;5095318;28;20413;-53
2021/04/13 05:15:21;;;;;;;3.00;1.10;;;5.30;99.90;;;;;;5096658;28;20508;-51
2021/04/13 05:17:48;;;;;;;1.30;0.85;;;5.20;99.90;;;;;;5095662;28;20418;-50
2021/04/13 05:20:16;;;;;;;2.90;0.80;;;4.90;99.90;;;;;;5096081;28;20465;-53
2021/04/13 05:22:43;;;;;;;1.80;0.90;;;4.90;99.90;;;;;;5095906;28;20495;-49
2021/04/13 05:25:11;;;;;;;1.80;1.05;;;5.00;99.90;;;;;;5085456;28;20453;-49
2021/04/13 05:27:37;;;;;;;1.50;0.90;;;5.20;99.90;;;;;;5094470;28;20450;-50
2021/04/13 05:30:06;;;;;;;1.70;0.90;;;5.20;99.90;;;;;;5092862;28;20475;-49
2021/04/13 05:32:33;;;;;;;2.70;0.90;;;5.20;99.90;;;;;;5095515;28;20732;-49
2021/04/13 05:34:59;;;;;;;1.60;1.00;;;5.20;99.90;;;;;;5094582;28;20687;-51
2021/04/13 05:37:28;;;;;;;3.00;1.00;;;5.20;99.90;;;;;;5093830;28;20531;-51
2021/04/13 05:39:55;;;;;;;2.05;1.05;;;5.00;99.90;;;;;;5094596;28;20413;-51
2021/04/13 05:42:26;;;;;;;1.70;1.00;;;5.00;99.90;;;;;;5094759;28;20480;-50
2021/04/13 05:44:54;;;;;;;1.83;1.10;;;5.20;99.90;;;;;;5095419;28;20418;-51
2021/04/13 05:47:21;;;;;;;1.60;1.15;;;5.40;99.90;;;;;;5094714;28;20848;-53
2021/04/13 05:49:47;;;;;;;1.40;1.05;;;5.10;99.90;;;;;;5094538;28;20487;-51
2021/04/13 05:52:14;;;;;;;1.60;1.00;;;4.80;99.90;;;;;;5094035;28;20430;-50
2021/04/13 05:54:41;;;;;;;1.77;1.10;;;4.80;99.90;;;;;;5091937;28;20429;-51
2021/04/13 05:57:11;;;;;;;1.85;1.10;;;5.00;99.90;;;;;;5090172;28;20526;-51
2021/04/13 05:59:37;;;;;;;2.25;1.17;;;5.20;99.90;;;;;;5091099;28;20418;-48
2021/04/13 06:02:05;;;;;;;2.28;1.10;;;5.50;99.90;;;;;;5091139;28;20739;-49
2021/04/13 06:04:32;;;;;;;1.77;1.30;;;5.50;99.90;;;;;;5093332;28;20829;-48
2021/04/13 06:06:59;;;;;;;1.60;1.10;;;5.50;99.90;;;;;;5093817;28;20437;-53
2021/04/13 06:09:25;;;;;;;2.72;1.10;;;5.60;99.90;;;;;;5092848;28;20457;-48
2021/04/13 06:11:52;;;;;;;2.28;1.20;;;5.70;99.90;;;;;;5093345;28;20479;-52
2021/04/13 06:14:21;;;;;;;2.53;1.10;;;5.70;99.90;;;;;;5079960;28;20474;-52
2021/04/13 06:16:49;;;;;;;1.80;1.10;;;5.50;99.90;;;;;;5092555;28;20430;-53
2021/04/13 06:19:15;;;;;;;1.80;1.30;;;5.50;99.90;;;;;;5094656;28;20425;-54
2021/04/13 06:21:42;;;;;;;2.20;1.50;;;5.50;99.90;;;;;;5092721;28;20844;-54
2021/04/13 06:24:10;;;;;;;2.78;1.50;;;5.60;99.90;;;;;;5074186;28;20476;-54
2021/04/13 06:26:37;;;;;;;1.88;1.33;;;5.60;99.90;;;;;;5074940;28;20442;-51
2021/04/13 06:29:04;;;;;;;3.53;1.70;;;5.50;99.90;;;;;;5093186;28;20484;-50
2021/04/13 06:31:31;;;;;;;2.10;1.50;;;5.00;99.90;;;;;;5094015;28;20434;-53
2021/04/13 06:33:57;;;;;;;1.73;1.30;;;5.10;99.90;;;;;;5076987;28;20467;-53
2021/04/13 06:36:26;;;;;;;2.75;1.40;;;5.40;99.90;;;;;;5077484;28;20948;-52
2021/04/13 06:38:53;;;;;;;3.70;1.40;;;5.50;99.90;;;;;;5088675;28;20871;-52
2021/04/13 06:41:37;;;;;;;3.50;1.70;;;5.50;99.90;;;;;;5086110;28;20496;-53
2021/04/13 06:44:28;;;;;;;3.00;1.33;;;5.50;99.90;;;;;;5086718;28;20433;-53
2021/04/13 06:47:01;;;;;;;2.60;1.40;;;5.60;99.90;;;;;;5082362;28;20457;-51
2021/04/13 06:49:58;;;;;;;2.10;1.30;;;5.60;99.90;;;;;;5082182;28;20461;-52
2021/04/13 06:52:35;;;;;;;2.90;1.40;;;5.80;99.90;;;;;;5071458;28;20765;-50
2021/04/13 06:55:12;;;;;;;2.22;1.27;;;6.00;99.90;;;;;;5071772;28;20967;-53
2021/04/13 06:57:51;;;;;;;3.00;1.30;;;6.10;99.90;;;;;;5085316;28;20426;-51
2021/04/13 07:00:32;;;;;;;3.70;1.70;;;6.30;99.90;;;;;;5090426;28;20469;-56
2021/04/13 07:03:11;;;;;;;2.50;1.60;;;6.20;99.90;;;;;;5080900;28;20457;-53
2021/04/13 07:05:43;;;;;;;2.60;1.50;;;6.20;99.90;;;;;;5076032;28;20528;-55
2021/04/13 07:08:16;;;;;;;2.73;1.50;;;6.30;99.90;;;;;;5088388;28;20422;-48
2021/04/13 07:10:50;;;;;;;1.80;1.30;;;6.60;99.90;;;;;;5075541;28;20461;-49
2021/04/13 07:13:22;;;;;;;3.67;1.40;;;6.70;99.90;;;;;;5071962;28;20431;-47
2021/04/13 07:15:57;;;;;;;2.72;1.45;;;6.60;99.90;;;;;;5078480;28;20430;-49
2021/04/13 07:18:29;;;;;;;2.83;1.60;;;6.70;99.90;;;;;;5091052;28;20430;-50
2021/04/13 07:21:02;;;;;;;2.22;1.75;;;6.60;99.90;;;;;;5091852;28;20453;-49
2021/04/13 07:23:35;;;;;;;1.90;1.30;;;6.40;99.90;;;;;;5091837;28;20425;-49
2021/04/13 07:26:09;;;;;;;3.40;1.60;;;6.20;99.90;;;;;;5075179;28;20615;-51
2021/04/13 07:28:40;;;;;;;3.10;2.17;;;6.60;99.90;;;;;;5073229;28;20423;-52
2021/04/13 07:31:14;;;;;;;4.00;1.40;;;6.90;99.90;;;;;;5071089;28;20428;-51
2021/04/13 07:33:44;;;;;;;2.90;2.00;;;6.60;99.90;;;;;;5080734;28;20737;-54
2021/04/13 07:36:17;;;;;;;5.20;2.20;;;6.70;99.90;;;;;;5091571;28;20438;-53
2021/04/13 07:38:47;;;;;;;2.80;2.20;;;6.80;99.90;;;;;;5090954;28;20515;-52
2021/04/13 07:41:22;;;;;;;2.47;1.67;;;6.70;99.90;;;;;;5091758;28;20868;-51
2021/04/13 07:43:55;;;;;;;2.92;1.60;;;6.80;99.90;;;;;;5090733;28;20851;-50
2021/04/13 07:46:46;;;;;;;4.25;2.30;;;7.00;99.90;;;;;;5087946;28;20855;-52
2021/04/13 07:49:16;;;;;;;4.10;2.40;;;7.00;99.90;;;;;;5088543;28;20856;-52
2021/04/13 07:51:55;;;;;;;3.30;2.30;;;7.00;99.90;;;;;;5090351;28;20479;-51
2021/04/13 07:54:53;;;;;;;4.63;2.45;;;7.00;99.90;;;;;;5091102;28;20425;-51
2021/04/13 07:57:28;;;;;;;3.20;1.60;;;7.10;99.90;;;;;;5071817;28;20473;-54
2021/04/13 08:00:15;;;;;;;2.45;1.75;;;7.30;99.90;;;;;;5076337;28;20422;-54
2021/04/13 08:02:46;;;;;;;3.30;2.38;;;7.50;99.90;;;;;;5088847;28;20424;-56
2021/04/13 08:05:13;;;;;;;3.30;2.00;;;7.50;99.90;;;;;;5071130;28;20767;-56
2021/04/13 08:07:42;;;;;;;3.50;2.50;;;7.60;99.90;;;;;;5087587;28;20425;-55
2021/04/13 08:10:16;;;;;;;2.40;1.90;;;6.90;99.90;;;;;;5074084;28;20427;-54
2021/04/13 08:12:57;;;;;;;3.70;2.42;;;7.00;99.90;;;;;;5071201;28;20520;-56
2021/04/13 08:15:44;;;;;;;5.43;3.20;;;7.30;99.90;;;;;;5084736;28;20472;-56
2021/04/13 08:18:20;;;;;;;3.28;2.00;;;7.50;99.90;;;;;;5092111;28;20757;-55
2021/04/13 08:20:47;;;;;;;5.38;2.13;;;7.70;99.90;;;;;;5092952;28;20793;-53
2021/04/13 08:23:36;;;;;;;2.95;2.10;;;7.60;99.90;;;;;;5092792;28;20417;-56
2021/04/13 08:26:17;;;;;;;2.00;1.30;;;7.60;99.90;;;;;;5090823;28;20429;-54
2021/04/13 08:28:50;;;;;;;3.20;2.00;;;7.70;99.90;;;;;;5078357;28;20481;-58
2021/04/13 08:34:42;;;;;;;3.50;1.70;;;7.70;99.90;;;;;;5072046;28;20965;-56
2021/04/13 08:37:15;;;;;;;2.40;1.67;;;7.80;99.90;;;;;;5073708;28;20822;-57
2021/04/13 08:39:46;;;;;;;2.20;1.40;;;7.70;99.90;;;;;;5087088;28;20447;-57
2021/04/13 08:42:29;;;;;;;3.77;1.40;;;7.60;99.90;;;;;;5093079;28;20430;-56
2021/04/13 08:45:00;;;;;;;2.60;1.40;;;7.60;99.90;;;;;;5078897;28;20748;-57
2021/04/13 08:47:38;;;;;;;4.43;2.90;;;7.80;99.90;;;;;;5075663;28;20907;-58
2021/04/13 08:50:28;;;;;;;2.33;1.90;;;7.60;99.90;;;;;;5075782;28;20813;-57
2021/04/13 08:52:56;;;;;;;3.63;1.85;;;7.70;99.90;;;;;;5075504;28;20727;-58
2021/04/13 08:55:40;;;;;;;5.03;2.20;;;7.70;99.90;;;;;;5078302;28;20436;-57
2021/04/13 08:58:23;;;;;;;2.60;1.35;;;7.70;99.90;;;;;;5093337;28;20456;-56
2021/04/13 09:00:51;;;;;;;3.13;1.90;;;8.30;99.90;;;;;;5073276;28;20415;-57
2021/04/13 09:03:19;;;;;;;3.58;2.13;;;8.60;99.90;;;;;;5091182;28;20508;-57
2021/04/13 09:05:48;;;;;;;2.35;1.77;;;8.40;99.90;;;;;;5074990;28;20432;-58
2021/04/13 09:08:29;;;;;;;2.40;1.80;;;8.40;99.90;;;;;;5074888;28;20420;-58
2021/04/13 09:11:19;;;;;;;1.60;1.40;;;8.90;99.90;;;;;;5075220;28;20492;-58
2021/04/13 09:13:58;;;;;;;5.00;1.60;;;9.20;99.90;;;;;;5073393;28;20842;-58
2021/04/13 09:16:27;;;;;;;2.20;1.45;;;9.10;99.90;;;;;;5073870;28;20438;-57
2021/04/13 09:18:56;;;;;;;2.88;1.67;;;9.10;99.90;;;;;;5073082;28;20453;-57
2021/04/13 09:21:44;;;;;;;2.25;1.60;;;9.20;99.90;;;;;;5074804;28;20435;-58
2021/04/13 09:24:21;;;;;;;2.88;1.80;;;8.90;99.90;;;;;;5075121;28;20426;-58
2021/04/13 09:27:16;;;;;;;2.35;1.60;;;8.50;99.90;;;;;;5074998;28;20805;-57
2021/04/13 09:29:46;;;;;;;3.20;1.90;;;8.40;99.90;;;;;;5085785;28;20438;-58
2021/04/13 09:32:33;;;;;;;2.90;1.40;;;8.00;99.90;;;;;;5075608;28;20724;-58
2021/04/13 09:35:36;;;;;;;2.45;1.80;;;7.90;99.90;;;;;;5075890;28;20830;-58
2021/04/13 09:38:20;;;;;;;1.90;1.30;;;7.70;99.90;;;;;;5074608;28;20419;-52
2021/04/13 09:41:02;;;;;;;2.30;1.60;;;7.80;99.90;;;;;;5074708;28;20431;-57
2021/04/13 09:44:18;;;;;;;2.20;1.30;;;7.90;99.90;;;;;;5074906;28;20785;-58
2021/04/13 09:46:53;;;;;;;2.60;1.50;;;8.00;99.90;;;;;;5074650;28;20474;-58
2021/04/13 09:49:34;;;;;;;2.20;1.40;;;7.90;99.90;;;;;;5073788;28;20438;-58
2021/04/13 09:52:24;;;;;;;3.10;1.90;;;7.90;99.90;;;;;;5077995;28;20441;-58
2021/04/13 09:55:04;;;;;;;2.90;1.45;;;7.80;99.90;;;;;;5086240;28;20441;-57
2021/04/13 09:58:15;;;;;;;2.47;1.20;;;7.90;99.90;;;;;;5094297;28;20717;-57
2021/04/13 10:00:57;;;;;;;2.95;1.30;;;8.20;99.90;;;;;;5016965;28;20454;-58
2021/04/13 10:03:57;;;;;;;2.50;1.40;;;8.50;99.90;;;;;;5073528;28;20515;-58
2021/04/13 10:06:30;;;;;;;3.25;1.45;;;9.10;99.90;;;;;;5073544;28;20818;-58
2021/04/13 10:09:05;;;;;;;1.90;1.30;;;9.60;99.90;;;;;;5073873;28;20431;-57
2021/04/13 10:11:56;;;;;;;3.70;1.38;;;9.40;99.90;;;;;;5085867;28;20853;-58
2021/04/13 10:15:13;;;;;;;1.60;1.30;;;9.80;99.90;;;;;;5095060;28;20448;-58
2021/04/13 10:18:07;;;;;;;1.90;1.35;;;10.00;99.90;;;;;;5095046;28;20420;-59
2021/04/13 10:20:44;;;;;;;2.50;1.70;;;9.80;99.90;;;;;;5095491;28;20905;-58
2021/04/13 10:23:47;;;;;;;3.00;1.50;;;9.50;99.90;;;;;;5096231;28;20467;-58
2021/04/13 10:26:47;;;;;;;1.88;1.15;;;9.20;99.90;;;;;;5095581;28;20512;-59
2021/04/13 10:29:49;;;;;;;2.47;1.40;;;9.30;99.90;;;;;;5094178;28;20433;-58
2021/04/13 10:32:45;;;;;;;1.53;1.20;;;9.30;99.90;;;;;;5094196;28;20468;-59
2021/04/13 10:35:37;;;;;;;2.80;1.50;;;8.90;99.90;;;;;;5094095;28;20736;-58
2021/04/13 10:38:46;;;;;;;2.72;1.30;;;8.50;99.90;;;;;;5094034;28;20418;-58
2021/04/13 10:42:00;;;;;;;2.55;1.40;;;8.70;99.90;;;;;;5094882;28;20433;-58
2021/04/13 10:44:54;;;;;;;1.90;1.20;;;9.10;99.90;;;;;;5094175;28;20456;-59
2021/04/13 10:47:57;;;;;;;1.70;1.05;;;9.90;99.90;;;;;;5088379;28;20472;-58
2021/04/13 10:50:55;;;;;;;1.30;0.90;;;10.40;99.90;;;;;;5093984;28;20469;-59
2021/04/13 10:53:48;;;;;;;1.50;0.98;;;10.70;95.90;;;;;;5094011;28;20422;-60
2021/04/13 10:56:37;;;;;;;1.70;1.00;;;10.50;95.40;;;;;;5091006;28;20473;-59
2021/04/13 10:59:43;;;;;;;2.30;1.00;;;10.10;94.10;;;;;;5092225;28;20421;-58
2021/04/13 11:02:59;;;;;;;2.20;1.00;;;10.30;97.80;;;;;;5091922;28;20887;-58
2021/04/13 11:05:41;;;;;;;1.50;1.10;;;10.40;94.20;;;;;;5092471;28;20529;-60
2021/04/13 11:08:44;;;;;;;1.30;1.00;;;10.80;95.00;;;;;;5092015;28;20422;-58
2021/04/13 11:11:43;;;;;;;1.73;1.10;;;11.60;93.50;;;;;;5093139;28;20566;-56
2021/04/13 11:14:39;;;;;;;1.60;1.00;;;12.10;88.60;;;;;;5094348;28;20829;-59
2021/04/13 11:17:56;;;;;;;1.80;1.00;;;12.20;86.60;;;;;;5087280;28;20435;-59
2021/04/13 11:20:30;;;;;;;1.90;1.20;;;12.60;85.60;;;;;;5060106;28;20512;-59
2021/04/13 11:23:33;;;;;;;1.58;0.90;;;12.50;85.30;;;;;;5073438;28;20424;-59
2021/04/13 11:26:39;;;;;;;1.00;0.80;;;12.80;75.90;;;;;;5073295;28;20431;-59
2021/04/13 11:29:33;;;;;;;1.20;0.80;;;12.90;71.80;;;;;;5072328;28;20896;-59
2021/04/13 11:32:50;;;;;;;1.60;0.90;;;13.00;65.80;;;;;;5049816;28;20441;-59
2021/04/13 11:35:23;;;;;;;1.60;1.02;;;12.90;64.90;;;;;;5010709;28;20429;-60
2021/04/13 11:38:22;;;;;;;1.30;0.80;;;13.20;65.60;;;;;;5061168;28;20427;-60
2021/04/13 11:41:03;;;;;;;1.60;1.00;;;13.80;65.70;;;;;;5068434;28;20435;-60
2021/04/13 11:43:36;;;;;;;1.20;0.90;;;13.90;66.90;;;;;;5071144;28;20427;-60
2021/04/13 11:46:07;;;;;;;1.52;1.00;;;14.50;66.80;;;;;;5072486;28;20802;-60
2021/04/13 11:48:43;;;;;;;1.30;0.90;;;15.00;63.40;;;;;;5072279;28;20431;-58
2021/04/13 11:51:19;;;;;;;1.40;1.00;;;14.90;59.00;;;;;;5072387;28;20484;-58
2021/04/13 11:53:48;;;;;;;2.20;1.00;;;14.90;59.80;;;;;;5071986;28;20774;-56
2021/04/13 11:56:36;;;;;;;1.20;0.90;;;15.00;58.00;;;;;;5071906;28;20512;-60
2021/04/13 11:59:30;;;;;;;1.48;0.90;;;14.30;58.20;;;;;;5073096;28;20522;-58
2021/04/13 12:02:15;;;;;;;1.40;0.90;;;13.70;57.20;;;;;;5037229;28;20431;-59
2021/04/13 12:04:45;;;;;;;1.40;1.00;;;13.00;62.60;;;;;;5071930;28;20416;-55
2021/04/13 12:07:12;;;;;;;1.40;1.00;;;12.50;67.40;;;;;;5070561;28;20693;-57
2021/04/13 12:09:45;;;;;;;1.30;0.90;;;11.90;69.60;;;;;;5071667;28;20851;-59
2021/04/13 12:12:50;;;;;;;1.40;0.90;;;12.50;73.50;;;;;;5071431;28;20986;-59
2021/04/13 12:15:57;;;;;;;1.30;1.00;;;13.30;71.40;;;;;;5071833;28;20474;-60
2021/04/13 12:18:57;;;;;;;2.00;1.20;;;13.10;71.40;;;;;;5071161;28;20415;-59
2021/04/13 12:21:58;;;;;;;1.40;1.00;;;13.20;71.80;;;;;;5062421;28;20431;-60
2021/04/13 12:24:52;;;;;;;1.80;1.10;;;13.00;68.40;;;;;;5074538;28;20424;-59
2021/04/13 12:27:45;;;;;;;3.20;1.00;;;12.10;71.80;;;;;;5077067;28;20419;-60
2021/04/13 12:30:53;;;;;;;1.30;1.00;;;12.50;69.20;;;;;;5074236;28;20465;-59
2021/04/13 12:33:58;;;;;;;1.95;0.90;;;12.10;65.60;;;;;;5075733;28;20428;-60
2021/04/13 12:37:06;;;;;;;1.10;0.80;;;12.30;64.90;;;;;;5067057;28;20434;-59
2021/04/13 12:39:51;;;;;;;1.70;1.00;;;12.70;64.50;;;;;;5076342;28;20752;-60
2021/04/13 12:42:48;;;;;;;1.13;0.80;;;12.90;66.00;;;;;;5076496;28;20415;-64
2021/04/13 12:45:26;;;;;;;1.50;0.77;;;12.80;58.50;;;;;;5074351;28;20822;-59
2021/04/13 12:47:55;;;;;;;1.13;0.85;;;13.30;62.00;;;;;;5075171;28;20415;-61
2021/04/13 12:50:28;;;;;;;1.30;1.00;;;13.40;61.10;;;;;;5075213;28;20824;-61
2021/04/13 12:52:55;;;;;;;1.55;1.00;;;13.00;61.00;;;;;;5074797;28;20423;-61
2021/04/13 12:55:23;;;;;;;1.50;1.00;;;12.70;63.20;;;;;;5076094;28;20431;-64
2021/04/13 12:57:51;;;;;;;1.35;0.90;;;13.00;62.90;;;;;;5075755;28;20419;-59
2021/04/13 13:00:24;;;;;;;1.40;0.80;;;13.40;61.00;;;;;;5074769;28;20851;-62
2021/04/13 13:02:51;;;;;;;1.13;0.80;;;13.60;59.20;;;;;;5075496;28;20427;-61
2021/04/13 13:05:33;;;;;;;1.20;0.77;;;13.10;57.30;;;;;;5074726;28;20715;-60
2021/04/13 13:08:02;;;;;;;1.10;0.80;;;12.60;58.10;;;;;;5073799;28;20430;-61
2021/04/13 13:10:32;;;;;;;1.10;0.80;;;12.20;59.00;;;;;;5085045;28;20894;-62
2021/04/13 13:13:03;;;;;;;1.40;0.80;;;11.80;59.70;;;;;;5079026;28;20450;-62
2021/04/13 13:15:34;;;;;;;1.20;0.90;;;11.60;59.50;;;;;;5074052;28;20451;-61
2021/04/13 13:18:18;;;;;;;1.80;1.00;;;11.20;63.90;;;;;;5073685;28;20432;-61
2021/04/13 13:20:47;;;;;;;1.60;0.90;;;10.90;68.80;;;;;;5075340;28;20702;-61
2021/04/13 13:23:16;;;;;;;1.40;0.90;;;10.60;73.40;;;;;;5074920;28;20431;-60
2021/04/13 13:25:43;;;;;;;1.60;0.80;;;10.50;78.30;;;;;;5075747;28;20889;-61
2021/04/13 13:28:12;;;;;;;1.30;0.90;;;10.40;86.00;;;;;;5076695;28;20517;-60
2021/04/13 13:30:40;;;;;;;2.60;0.90;;;10.20;87.60;;;;;;5074960;28;20442;-61
2021/04/13 13:33:06;;;;;;;1.33;0.90;;;9.80;92.50;;;;;;5075486;28;20462;-60
2021/04/13 13:35:33;;;;;;;3.10;0.93;;;9.50;96.90;;;;;;5074185;28;20428;-60
2021/04/13 13:38:01;;;;;;;2.50;1.10;;;9.40;99.90;;;;;;5074630;28;20789;-61
2021/04/13 13:40:31;;;;;;;2.20;0.93;;;8.90;99.60;;;;;;5075542;28;20443;-60
2021/04/13 13:42:59;;;;;;;1.30;0.90;;;8.70;99.90;;;;;;5075066;28;20462;-60
2021/04/13 13:45:27;;;;;;;1.40;1.00;;;9.00;99.20;;;;;;5075303;28;20473;-61
2021/04/13 13:47:55;;;;;;;2.80;1.00;;;9.00;99.90;;;;;;5075088;28;20424;-61